This is the latest recevied weather packets stored in our database for station/object WA0LM. If no packets are shown the sender has not sent any weather packets the latest 10 day(s).
| Time | Temp. | Humidity | Pressure | Rain* | Wind** | Luminosity | Snow |
|---|---|---|---|---|---|---|---|
| 1777929716 | 8.33° C | 57% | 1001.9 hPa | 0 mm | - | 140 W/m² | - |
| 1777929413 | 8.89° C | 53% | 1001.9 hPa | 0 mm | - | 210 W/m² | - |
| 1777929109 | 8.89° C | 56% | 1001.7 hPa | 0 mm | - | 216 W/m² | - |
| 1777928808 | 8.89° C | 53% | 1001.8 hPa | 0 mm | - | 218 W/m² | - |
| 1777928504 | 8.89° C | 51% | 1001.8 hPa | 0 mm | - | 234 W/m² | - |
| 1777928201 | 8.89° C | 54% | 1001.6 hPa | 0 mm | - | 247 W/m² | - |
| 1777927898 | 8.89° C | 49% | 1001.4 hPa | 0 mm | - | 272 W/m² | - |
| 1777927597 | 8.89° C | 50% | 1001.3 hPa | 0 mm | - | 258 W/m² | - |
| 1777927295 | 8.89° C | 54% | 1001.2 hPa | 0 mm | - | 395 W/m² | - |
| 1777926994 | 9.44° C | 53% | 1001.2 hPa | 0 mm | - | 931 W/m² | - |
| 1777926691 | 8.89° C | 53% | 1001.5 hPa | 0 mm | - | 442 W/m² | - |
| 1777926391 | 8.89° C | 51% | 1001.4 hPa | 0 mm | - | 454 W/m² | - |
| 1777926088 | 8.89° C | 56% | 1001.3 hPa | 0 mm | - | 282 W/m² | - |
| 1777925785 | 8.89° C | 49% | 1001.4 hPa | 0 mm | - | 251 W/m² | - |
| 1777925483 | 8.89° C | 52% | 1001.5 hPa | 0 mm | - | 278 W/m² | - |
| 1777925180 | 8.89° C | 50% | 1001.3 hPa | 0 mm | - | 268 W/m² | - |
| 1777924876 | 8.89° C | 53% | 1001.2 hPa | 0 mm | - | 220 W/m² | - |
| 1777924572 | 8.89° C | 57% | 1001.2 hPa | 0 mm | - | 302 W/m² | - |
| 1777924269 | 9.44° C | 55% | 1001 hPa | 0 mm | - | 904 W/m² | - |
| 1777923965 | 8.89° C | 55% | 1001 hPa | 0 mm | - | 279 W/m² | - |
| 1777923661 | 10° C | 53% | 1001 hPa | 0 mm | - | 212 W/m² | - |
| 1777923358 | 9.44° C | 56% | 1000.8 hPa | 0 mm | - | 465 W/m² | - |
| 1777923056 | 9.44° C | 52% | 1000.6 hPa | 0 mm | - | 997 W/m² | - |
| 1777922754 | 9.44° C | 53% | 1000.9 hPa | 0 mm | - | 232 W/m² | - |
| 1777922452 | 9.44° C | 53% | 1000.5 hPa | 0 mm | - | 245 W/m² | - |
* Rain latest hour (hover to see other rain measurements)
** Current wind speed in m/s (hover to see current wind gust speed)